Pierre Part, Louisiana
Current Conditions -  °F | °C
As of 2:15 PM on Wednesday 28 Jan 2015 (Local Time) from KPTN Reporting Station
Clear Clear  
Wind Chill: 70°   Ceiling: Unl
Heat Index: 70°   Visibility: 10mi
Dew Point: 43°   Wind: 8mph
Humidity: 38%   Direction: 160°SSE
Pressure: 30.23"   Gusts: NA
Location:  29.96°N, 91.21°W
Report Text: KPTN 282015Z AUTO 16007KT 10SM CLR 21/06 A3023 RMK AO1
Loading
Personal Weather Stations






























Interactive Weather Map New forecast layout! Learn more

10-Day Weather Forecast

Advertisements
Track Severe Weather on mobile